Time;durP1;ratioP1;P1;durP2;ratioP2;P2;SDS_P1;SDS_P2;PMS_P1;PMS_P2;Temp;Humidity;BMP_temperature;BMP_pressure;BME280_temperature;BME280_humidity;BME280_pressure;Samples;Min_cycle;Max_cycle;Signal;HPM_P1;HPM_P2
2021/08/13 00:01:02;;;;;;;16.45;7.50;;;20.70;99.90;;;;;;20840137;28;20048;-78
2021/08/13 00:11:03;;;;;;;12.20;6.93;;;20.70;99.90;;;;;;20839260;28;20021;-78
2021/08/13 00:21:03;;;;;;;12.93;7.07;;;20.80;99.90;;;;;;20839764;28;20124;-78
2021/08/13 00:31:04;;;;;;;11.83;7.30;;;20.60;99.90;;;;;;20838422;28;20354;-78
2021/08/13 00:41:06;;;;;;;11.57;7.43;;;20.30;99.90;;;;;;20821236;28;20547;-78
2021/08/13 00:51:07;;;;;;;12.73;7.77;;;19.90;99.90;;;;;;20822316;28;20128;-79
2021/08/13 01:01:11;;;;;;;14.68;8.10;;;20.00;99.90;;;;;;20821499;28;20367;-79
2021/08/13 01:11:43;;;;;;;19.42;7.72;;;19.70;99.90;;;;;;20820637;28;20036;-78
2021/08/13 01:21:51;;;;;;;19.73;8.75;;;19.80;99.90;;;;;;20819693;28;20037;-78
2021/08/13 01:32:13;;;;;;;17.83;8.93;;;19.40;99.90;;;;;;20818761;28;20033;-78
2021/08/13 01:42:18;;;;;;;15.55;8.98;;;19.40;99.90;;;;;;20825084;28;20071;-78
2021/08/13 01:52:22;;;;;;;18.10;7.85;;;19.30;99.90;;;;;;20816945;28;20037;-78
2021/08/13 02:02:24;;;;;;;20.35;7.50;;;19.40;99.90;;;;;;20822867;28;20040;-78
2021/08/13 02:12:26;;;;;;;18.20;8.43;;;19.00;99.90;;;;;;20822385;28;20033;-78
2021/08/13 02:22:27;;;;;;;12.53;7.03;;;18.90;99.90;;;;;;20822274;28;20403;-78
2021/08/13 02:32:33;;;;;;;15.57;7.72;;;19.00;99.90;;;;;;20825462;28;20025;-78
2021/08/13 02:42:53;;;;;;;17.38;8.00;;;19.00;99.90;;;;;;20794077;28;20137;-78
2021/08/13 02:53:10;;;;;;;16.85;7.03;;;19.00;99.90;;;;;;20819491;28;20029;-77
2021/08/13 03:03:14;;;;;;;11.05;6.55;;;18.80;99.90;;;;;;20819644;28;20030;-78
2021/08/13 03:13:19;;;;;;;11.45;6.50;;;18.70;99.90;;;;;;20846771;28;20437;-78
2021/08/13 03:23:20;;;;;;;14.23;6.00;;;18.80;99.90;;;;;;20896710;28;20037;-78
2021/08/13 03:33:22;;;;;;;14.03;6.27;;;18.50;99.90;;;;;;20899177;28;20036;-77
2021/08/13 03:43:23;;;;;;;11.38;6.22;;;18.00;99.90;;;;;;20898664;28;20032;-77
2021/08/13 03:53:24;;;;;;;11.80;5.83;;;17.90;99.90;;;;;;20897346;28;20115;-77
2021/08/13 04:03:27;;;;;;;10.13;5.95;;;18.00;99.90;;;;;;20880539;28;20033;-77
2021/08/13 04:13:28;;;;;;;14.57;6.13;;;17.70;99.90;;;;;;20879182;28;20036;-76
2021/08/13 04:23:35;;;;;;;12.38;5.60;;;17.90;99.90;;;;;;20895180;28;20036;-77
2021/08/13 04:33:36;;;;;;;17.00;6.13;;;18.10;99.90;;;;;;20912510;28;20104;-76
2021/08/13 04:43:43;;;;;;;18.50;5.95;;;17.90;99.90;;;;;;20882952;28;20033;-77
2021/08/13 04:53:46;;;;;;;10.63;5.32;;;18.30;99.90;;;;;;20893081;28;20028;-77
2021/08/13 05:03:48;;;;;;;10.50;5.30;;;18.20;99.90;;;;;;20900396;28;20025;-77
2021/08/13 05:13:49;;;;;;;13.90;5.80;;;18.20;99.90;;;;;;20909384;28;20436;-77
2021/08/13 05:23:51;;;;;;;11.38;5.68;;;17.90;99.90;;;;;;20897506;28;20035;-77
2021/08/13 05:33:52;;;;;;;13.10;5.73;;;18.40;99.90;;;;;;20877307;28;20491;-74
2021/08/13 05:43:53;;;;;;;10.83;6.13;;;18.80;99.90;;;;;;20889860;28;20059;-75
2021/08/13 05:53:55;;;;;;;9.85;5.13;;;19.00;99.90;;;;;;20865165;28;20025;-73
2021/08/13 06:03:56;;;;;;;13.77;5.00;;;19.50;99.90;;;;;;20805117;28;20030;-74
2021/08/13 06:13:58;;;;;;;12.68;5.03;;;20.30;99.90;;;;;;20805387;28;20029;-73
2021/08/13 06:23:58;;;;;;;11.47;4.27;;;20.20;99.90;;;;;;20805872;28;20036;-74
2021/08/13 06:34:00;;;;;;;10.65;5.57;;;20.20;99.90;;;;;;20807772;28;20032;-74
2021/08/13 06:44:02;;;;;;;10.05;4.60;;;20.50;99.90;;;;;;20823040;28;20120;-73
2021/08/13 06:54:04;;;;;;;11.73;5.07;;;21.70;99.90;;;;;;20819911;28;20061;-72
2021/08/13 07:04:05;;;;;;;7.10;4.45;;;22.30;99.90;;;;;;20818945;28;20037;-73
2021/08/13 07:14:06;;;;;;;13.10;4.83;;;23.20;99.90;;;;;;20836357;28;20034;-73
2021/08/13 07:24:07;;;;;;;6.25;3.50;;;23.70;99.90;;;;;;20817658;28;20801;-74
2021/08/13 07:34:08;;;;;;;10.00;4.07;;;24.70;99.90;;;;;;20816982;28;20037;-77
2021/08/13 07:44:12;;;;;;;10.88;4.10;;;23.80;99.90;;;;;;20816061;28;20092;-77
2021/08/13 07:54:13;;;;;;;8.77;2.72;;;23.70;99.90;;;;;;20815040;28;20037;-75
2021/08/13 08:04:14;;;;;;;7.10;2.72;;;25.00;99.90;;;;;;20832540;28;20392;-76
2021/08/13 08:14:15;;;;;;;5.65;3.08;;;26.40;99.90;;;;;;20832351;28;20570;-76
2021/08/13 08:24:15;;;;;;;5.50;2.47;;;26.30;99.90;;;;;;20834643;28;20040;-75
2021/08/13 08:34:16;;;;;;;5.23;2.30;;;26.20;99.90;;;;;;20829906;28;20375;-76
2021/08/13 08:44:17;;;;;;;5.82;2.80;;;26.00;99.90;;;;;;20811753;28;20338;-76
2021/08/13 08:54:24;;;;;;;5.43;2.70;;;25.70;99.90;;;;;;20829080;28;20041;-75
2021/08/13 09:04:25;;;;;;;6.10;3.13;;;26.10;99.90;;;;;;20827246;28;20048;-75
2021/08/13 09:14:40;;;;;;;6.35;3.00;;;27.10;99.90;;;;;;20827709;28;20069;-76
2021/08/13 09:24:43;;;;;;;10.02;3.22;;;27.70;99.90;;;;;;20827147;28;20160;-76
2021/08/13 09:34:48;;;;;;;10.02;3.45;;;27.20;99.90;;;;;;20825793;28;20045;-75
2021/08/13 09:45:06;;;;;;;10.40;3.38;;;27.90;99.90;;;;;;20825449;28;20069;-76
2021/08/13 09:55:13;;;;;;;11.02;3.55;;;28.00;99.90;;;;;;20829334;28;20120;-76
2021/08/13 10:05:23;;;;;;;4.70;2.47;;;28.00;99.90;;;;;;20824908;28;20026;-76
2021/08/13 10:15:31;;;;;;;11.00;2.90;;;28.50;99.90;;;;;;20836884;28;20033;-76
2021/08/13 10:25:33;;;;;;;9.43;2.67;;;28.20;99.90;;;;;;20822345;28;20025;-75
2021/08/13 10:35:57;;;;;;;14.38;3.20;;;29.10;99.90;;;;;;20821229;28;20036;-75
2021/08/13 10:46:09;;;;;;;12.32;3.75;;;29.40;99.90;;;;;;20817236;28;20108;-75
2021/08/13 10:56:10;;;;;;;13.03;4.07;;;29.30;99.90;;;;;;20820000;28;20085;-76
2021/08/13 11:06:11;;;;;;;18.42;3.97;;;29.70;99.90;;;;;;20819127;28;20033;-76
2021/08/13 11:16:33;;;;;;;8.93;3.88;;;30.20;99.90;;;;;;20836219;28;20057;-76
2021/08/13 11:26:52;;;;;;;9.30;4.10;;;30.00;99.90;;;;;;20817025;28;20033;-77
2021/08/13 11:36:54;;;;;;;9.27;4.03;;;30.10;99.90;;;;;;20816943;28;20515;-75
2021/08/13 11:46:58;;;;;;;11.50;5.47;;;29.90;99.90;;;;;;20816192;28;20032;-76
2021/08/13 11:57:16;;;;;;;12.80;4.82;;;30.00;99.90;;;;;;20814924;28;20502;-76
2021/08/13 12:07:17;;;;;;;14.80;5.38;;;29.80;99.90;;;;;;20818074;28;20030;-78
2021/08/13 12:17:25;;;;;;;11.07;4.85;;;30.40;99.90;;;;;;20819578;28;20080;-78
2021/08/13 12:27:29;;;;;;;9.80;5.22;;;30.70;99.90;;;;;;20833918;28;20049;-78
2021/08/13 12:37:31;;;;;;;11.57;4.68;;;30.60;99.90;;;;;;20814960;28;20033;-78
2021/08/13 12:47:33;;;;;;;11.70;5.15;;;31.10;99.90;;;;;;20810583;28;20033;-77
2021/08/13 12:57:37;;;;;;;14.57;4.90;;;31.10;99.90;;;;;;20794914;28;20029;-78
2021/08/13 13:07:40;;;;;;;13.68;5.28;;;31.10;99.90;;;;;;20791595;28;20837;-76
2021/08/13 13:17:59;;;;;;;10.20;4.88;;;31.70;99.90;;;;;;20791645;28;20038;-78
2021/08/13 13:28:03;;;;;;;10.77;4.78;;;31.80;99.90;;;;;;20793248;28;20038;-78
2021/08/13 13:38:28;;;;;;;12.88;4.95;;;32.50;99.90;;;;;;20823902;22;20053;-73
2021/08/13 13:48:29;;;;;;;16.17;5.75;;;31.70;99.90;;;;;;20807765;28;20421;-72
2021/08/13 13:58:30;;;;;;;12.75;6.07;;;31.50;99.90;;;;;;20804341;28;20038;-72
2021/08/13 14:08:32;;;;;;;14.50;5.45;;;30.50;99.90;;;;;;20804627;28;20087;-70
2021/08/13 14:18:34;;;;;;;14.15;6.10;;;31.60;99.90;;;;;;20787954;28;20044;-71
2021/08/13 14:28:35;;;;;;;13.40;4.97;;;30.70;99.90;;;;;;20804736;28;20426;-71
2021/08/13 14:38:36;;;;;;;11.63;5.28;;;31.10;99.90;;;;;;20803530;28;20033;-76
2021/08/13 14:48:37;;;;;;;9.52;4.65;;;31.20;99.90;;;;;;20835851;28;20036;-77
2021/08/13 14:58:38;;;;;;;13.55;6.10;;;30.90;99.90;;;;;;20891003;28;20037;-76
2021/08/13 15:08:39;;;;;;;9.10;5.25;;;31.20;99.90;;;;;;20900766;28;20395;-76
2021/08/13 15:18:41;;;;;;;13.57;5.90;;;31.20;99.90;;;;;;20900158;28;20106;-77
2021/08/13 15:28:42;;;;;;;11.20;5.15;;;31.10;99.90;;;;;;20867570;28;20448;-76
2021/08/13 15:38:43;;;;;;;10.73;5.53;;;30.90;99.90;;;;;;20815430;28;20068;-71
2021/08/13 15:48:44;;;;;;;14.32;4.90;;;30.80;99.90;;;;;;20849858;28;20332;-74
2021/08/13 15:58:45;;;;;;;10.63;5.03;;;30.30;99.90;;;;;;20838573;28;20026;-73
2021/08/13 16:08:46;;;;;;;12.90;5.40;;;30.40;99.90;;;;;;20811642;28;20048;-71
2021/08/13 16:18:47;;;;;;;11.93;4.90;;;30.10;99.90;;;;;;20811428;28;20026;-72
2021/08/13 16:28:48;;;;;;;11.98;4.60;;;30.10;99.90;;;;;;20808036;28;20037;-70
2021/08/13 16:38:49;;;;;;;12.68;4.50;;;29.70;99.90;;;;;;20847313;28;20033;-72
2021/08/13 16:48:50;;;;;;;8.25;4.70;;;29.50;99.90;;;;;;20874112;28;20033;-77
2021/08/13 16:58:51;;;;;;;11.70;5.45;;;29.30;99.90;;;;;;20825511;28;20025;-78
2021/08/13 17:08:51;;;;;;;10.68;5.35;;;29.20;99.90;;;;;;20830520;28;20122;-76
2021/08/13 17:18:52;;;;;;;10.88;6.03;;;29.10;99.90;;;;;;20824812;28;20033;-77
2021/08/13 17:28:53;;;;;;;9.50;5.40;;;29.00;99.90;;;;;;20827483;28;20073;-77
2021/08/13 17:38:54;;;;;;;15.05;5.60;;;28.70;99.90;;;;;;20827925;28;20061;-77
2021/08/13 17:48:55;;;;;;;8.68;5.07;;;28.50;99.90;;;;;;20833495;28;20060;-78
2021/08/13 17:58:55;;;;;;;9.70;5.57;;;28.10;99.90;;;;;;20838482;28;20036;-79
2021/08/13 18:08:56;;;;;;;14.95;5.07;;;27.20;99.90;;;;;;20837081;28;20063;-79
2021/08/13 18:18:59;;;;;;;14.13;5.53;;;26.60;99.90;;;;;;20841019;28;20029;-80
2021/08/13 18:28:59;;;;;;;10.73;5.38;;;26.30;99.90;;;;;;20834878;28;20041;-76
2021/08/13 18:39:02;;;;;;;14.55;6.45;;;25.70;99.90;;;;;;20840625;28;20468;-76
2021/08/13 18:49:03;;;;;;;12.48;6.93;;;25.00;99.90;;;;;;20838223;28;20026;-77
2021/08/13 18:59:04;;;;;;;15.68;7.18;;;24.30;99.90;;;;;;20837176;28;20067;-76
2021/08/13 19:09:05;;;;;;;12.25;7.00;;;23.80;99.90;;;;;;20851325;28;20099;-78
2021/08/13 19:19:06;;;;;;;;;;;24.00;99.90;;;;;;20859533;28;20037;-78
2021/08/13 19:29:07;;;;;;;10.17;6.23;;;24.10;99.90;;;;;;20849125;28;19913;-77
2021/08/13 19:39:07;;;;;;;;;;;24.10;99.90;;;;;;20852239;28;20065;-79
2021/08/13 19:49:10;;;;;;;11.03;6.20;;;24.00;99.90;;;;;;20853414;28;19913;-77
2021/08/13 19:59:11;;;;;;;14.88;7.18;;;23.60;99.90;;;;;;20840448;28;20287;-78
2021/08/13 20:09:11;;;;;;;17.20;7.97;;;23.30;99.90;;;;;;20850525;28;20108;-78
2021/08/13 20:19:12;;;;;;;;;;;23.60;99.90;;;;;;20841233;28;20378;-78
2021/08/13 20:29:14;;;;;;;11.00;6.53;;;23.60;99.90;;;;;;20849605;28;20331;-78
2021/08/13 20:39:15;;;;;;;14.37;7.00;;;23.10;99.90;;;;;;20835403;28;20033;-77
2021/08/13 20:49:16;;;;;;;14.13;7.43;;;22.40;99.90;;;;;;20834378;28;20021;-78
2021/08/13 20:59:16;;;;;;;18.53;7.63;;;22.00;99.90;;;;;;20838443;28;20286;-78
2021/08/13 21:09:17;;;;;;;14.40;6.80;;;21.90;99.90;;;;;;20836890;28;20029;-77
2021/08/13 21:19:19;;;;;;;13.95;7.55;;;22.20;99.90;;;;;;20831772;28;20064;-77
2021/08/13 21:29:20;;;;;;;14.18;7.32;;;22.30;99.90;;;;;;20829939;28;20087;-77
2021/08/13 21:39:21;;;;;;;18.17;7.57;;;22.00;99.90;;;;;;20826242;28;20496;-77
2021/08/13 21:49:22;;;;;;;15.43;7.73;;;21.70;99.90;;;;;;20826179;28;20041;-76
2021/08/13 21:59:24;;;;;;;14.07;7.47;;;21.30;99.90;;;;;;20827996;28;20370;-77
2021/08/13 22:09:25;;;;;;;13.38;7.70;;;21.10;99.90;;;;;;20835213;28;20057;-77
2021/08/13 22:19:26;;;;;;;18.70;8.80;;;20.90;99.90;;;;;;20842363;28;20063;-77
2021/08/13 22:29:26;;;;;;;11.57;8.07;;;20.80;99.90;;;;;;20842068;28;20064;-77
2021/08/13 22:39:27;;;;;;;12.40;8.13;;;20.70;99.90;;;;;;20843775;28;20029;-77
2021/08/13 22:49:28;;;;;;;12.93;8.30;;;20.50;99.90;;;;;;20840930;28;20034;-77
2021/08/13 22:59:29;;;;;;;12.57;7.73;;;20.30;99.90;;;;;;20838848;28;20399;-77
2021/08/13 23:09:31;;;;;;;12.45;8.18;;;20.30;99.90;;;;;;20838167;28;20033;-77
2021/08/13 23:19:32;;;;;;;17.88;8.45;;;20.30;99.90;;;;;;20837702;28;20038;-77
2021/08/13 23:29:33;;;;;;;14.57;8.50;;;20.20;99.90;;;;;;20838492;28;20040;-78
2021/08/13 23:39:34;;;;;;;18.50;7.93;;;20.20;99.90;;;;;;20837502;28;20428;-76
2021/08/13 23:49:35;;;;;;;24.07;8.27;;;20.10;99.90;;;;;;20840011;28;20048;-77
2021/08/13 23:59:35;;;;;;;15.33;7.50;;;19.90;99.90;;;;;;20837451;28;20053;-77
